KTUS/TUS METAR and TAF weather

Enter ICAO airport designator
Station Type Date Time Source
KTUS METAR 2022/05/26 03:53 UTC NOAA

KTUS 260353Z 35003KT 10SM CLR 31/M06 A2989 RMK AO2 SLP071 T03061061


Station Type Date Time Source
KTUS Decoded METAR 2022/05/26 03:53 UTC NOAA

TUCSON INTERNATIONAL AIRPORT , AZ, United States (KTUS) 32-08N 110-57W 786M
May 25, 2022 - 11:53 PM EDT / 2022.05.26 0353 UTC
Wind: from the N (350 degrees) at 3 MPH (3 KT):0
Visibility: 10 mile(s):0
Sky conditions: clear
Temperature: 87.1 F (30.6 C)
Dew Point: 21.0 F (-6.1 C)
Relative Humidity: 8%
Pressure (altimeter): 29.89 in. Hg (1012 hPa)
ob: KTUS 260353Z 35003KT 10SM CLR 31/M06 A2989 RMK AO2 SLP071 T03061061
cycle: 4

Station Type Date Time Source
KTUS TAF 2022/05/25 18:22 UTC NOAA

TAF KTUS 251720Z 2518/2618 32009G16KT P6SM SKC
FM260400 24005KT P6SM SKC
FM260900 16005KT P6SM SKC
FM261700 22004KT P6SM SKC

Example: see airport list